Pagrindinis puslapis
METAR-TAF:

METAR-TAF

Oro uostai :

Panama, Panama

platuma: 08-59N, ilguma: 079-31W, Aukštis: 13 m

Dabartinis oras

Ataskaita buvo paskelbta 23 minutes, ne 16:00 UTC
Vėjas 5 kt iš Rytų
Temperatūra 31°C
Drėgmė 66%
Slėgis 1013 hPa
Matomumas: 7000 m
Išsisklaidę debesys ne aukštis 1700 ft, aukštai iškilę kamuoliniai debesys.
Liūtis kaimynystėje

METAR: MPMG 171600Z 09005KT 7000 VCSH SCT017TCU 31/24 Q1013 TEMPO 5000 TSRA

Laikas: 11:23 (16:23 UTC)

Prognozė

Ataskaita buvo paskelbta 5 valandos ir 23 minutes, ne 11:00 UTC
Prognozė galioja nuo 17 metu 12 UTC su 17 metu 24 UTC
Vėjas 2 kt nuo kintamojo kryptimis
Matomumas 10 km arba daugiau
Išsisklaidę debesys ne aukštis 2000 ft
Tapsmas
nuo 17 metu 18 UTC su 17 metu 22 UTC
Vėjas 6 kt iš Vakarų/Pietvakarių
Matomumas: 6000 m
Išsisklaidę debesys ne aukštis 1600 ft, Liūtiniai kamuoliniai debesys.
Išsisklaidę debesys ne aukštis 9000 ft
perkūnija, lietus

TAF: MPMG 171100Z 1712/1724 VRB02KT 9999 SCT020 BECMG 1718/1722 24006KT 6000 TSRA SCT016CB SCT090

Orai ataskaitas ir orų prognozės (METAR, TAF).

turimą stotys yra geltonos ir raudonos taškus žemėlapyje.

Perkelti pele per norėdami pamatyti stoties vardą.

Tada spustelėkite, norėdami matyti oro stebėjimo ir prognozės.

Norėdami pakeisti žemėlapį: spustelėkite ant žalios mygtukų su juodo kryžiaus žemyn,; žalią mygtuką su brūkšneliu, jei norite nutolinti; arba žalių rodyklių gretimoms žemėlapius.


METAR-TAF: